Hlavní strana
METAR-TAF:

METAR-TAF

Letiště :

Béjaïa, Alžírsko

zeměpisná šířka: 36-43N, zeměpisná délka: 005-04E, výška: 2 m

Aktuální stav počasí

Zpráva byla vytvořena před 51 minutami, v 12:00 UTC
Východoseverovýchodní vítr 4 kt, proměnlivý mezi severovýchodním a východním
Teplota 24°C
Vlhkost vzduchu 69%
Tlak 1023 hPa
Viditelnost 10 km a více
Skoro jasno ve výšce 1300 ft

METAR: DAAE 261200Z 07004KT 040V100 9999 FEW013 24/18 Q1023

Čas: 13:51 (12:51 UTC)

Předpověď počasí

Zpráva byla vytvořena před 1 hodinou a 51 minutami, v 11:00 UTC
Předpověď platná od 26 v 12 UTC do 27 v 12 UTC
Východní vítr 8 kt
Viditelnost 10 km a více
Skoro jasno ve výšce 2000 ft
Změna
od 26 v 18 UTC do 26 v 20 UTC
Jihojihozápadní vítr 6 kt
Změna
od 27 v 05 UTC do 27 v 07 UTC
Severní vítr 8 kt

TAF: DAAE 261100Z 2612/2712 08008KT 9999 FEW020 BECMG 2618/2620 20006KT BECMG 2705/2707 01008KT

Stav a předpovědi počasí z více než 4 000 letišť (zprávy METAR a TAF).

Červené a žluté tečky na mapě představují dostupné meteorologické stanice.

Když kurzor umístíte na tečku, zobrazí se název stanice.

Pak kliknutím zobrazíte stav a předpověď počasí.

Chcete-li změnit mapu, kliknutím na zelené tlačítko se znaménkem +mapu přiblížíte, kliknutím na zelené tlačítko se znaménkem – mapu oddálíte a kliknutím na zelené šipky přejdete na sousední mapy.


METAR-TAF: